Time;durP1;ratioP1;P1;durP2;ratioP2;P2;SDS_P1;SDS_P2;PMS_P1;PMS_P2;Temp;Humidity;BMP_temperature;BMP_pressure;BME280_temperature;BME280_humidity;BME280_pressure;Samples;Min_cycle;Max_cycle;Signal;HPM_P1;HPM_P2
2022/08/18 00:00:10;;;;;;;4.93;3.88;;;21.70;99.90;;;;;;5065675;28;20029;-79
2022/08/18 00:02:41;;;;;;;5.43;4.03;;;21.70;99.90;;;;;;5060808;28;20064;-80
2022/08/18 00:05:08;;;;;;;7.18;3.88;;;21.70;99.90;;;;;;5043636;28;20372;-80
2022/08/18 00:07:34;;;;;;;4.88;3.50;;;21.60;99.90;;;;;;5060803;28;20135;-80
2022/08/18 00:10:00;;;;;;;5.65;3.63;;;21.60;99.90;;;;;;5062762;28;20124;-80
2022/08/18 00:12:34;;;;;;;4.95;3.90;;;21.50;99.90;;;;;;5058479;28;20029;-80
2022/08/18 00:15:03;;;;;;;4.82;3.50;;;21.50;99.90;;;;;;5063212;28;20020;-81
2022/08/18 00:17:28;;;;;;;7.90;4.55;;;21.50;99.90;;;;;;5062998;28;20079;-80
2022/08/18 00:19:54;;;;;;;6.03;3.67;;;21.40;99.90;;;;;;5053711;28;20430;-81
2022/08/18 00:22:20;;;;;;;6.47;3.40;;;21.40;99.90;;;;;;5053266;28;20047;-80
2022/08/18 00:24:51;;;;;;;6.50;3.85;;;21.40;99.90;;;;;;5058300;28;20028;-80
2022/08/18 00:27:28;;;;;;;5.97;3.83;;;21.40;99.90;;;;;;5057014;28;20457;-80
2022/08/18 00:29:59;;;;;;;5.93;4.30;;;21.40;99.90;;;;;;5052297;28;20668;-80
2022/08/18 00:32:29;;;;;;;5.53;3.83;;;21.30;99.90;;;;;;5061080;28;20111;-80
2022/08/18 00:34:55;;;;;;;4.75;3.60;;;21.30;99.90;;;;;;5062652;28;20036;-80
2022/08/18 00:37:22;;;;;;;4.95;3.38;;;21.20;99.90;;;;;;5064154;28;20445;-80
2022/08/18 00:39:51;;;;;;;5.95;4.00;;;21.20;99.90;;;;;;5061749;28;20041;-80
2022/08/18 00:42:23;;;;;;;5.90;4.03;;;21.10;99.90;;;;;;5063055;28;20051;-80
2022/08/18 00:44:49;;;;;;;6.18;4.00;;;21.10;99.90;;;;;;5052971;28;20024;-80
2022/08/18 00:47:14;;;;;;;5.22;3.50;;;21.10;99.90;;;;;;5061093;28;20500;-81
2022/08/18 00:49:42;;;;;;;4.63;3.42;;;21.10;99.90;;;;;;5058604;28;20112;-80
2022/08/18 00:52:10;;;;;;;6.57;3.88;;;21.00;99.90;;;;;;5038573;28;20071;-80
2022/08/18 00:54:38;;;;;;;6.85;3.65;;;21.00;99.90;;;;;;5055240;28;20047;-80
2022/08/18 00:57:06;;;;;;;6.10;4.00;;;20.90;99.90;;;;;;5059460;28;20032;-80
2022/08/18 00:59:45;;;;;;;6.00;4.32;;;20.90;99.90;;;;;;5059755;28;20085;-80
2022/08/18 01:02:22;;;;;;;5.63;4.03;;;20.90;99.90;;;;;;5041739;28;20548;-80
2022/08/18 01:05:20;;;;;;;5.60;3.85;;;20.80;99.90;;;;;;5063427;28;20116;-80
2022/08/18 01:07:47;;;;;;;6.75;3.78;;;20.80;99.90;;;;;;5031800;28;20032;-80
2022/08/18 01:10:16;;;;;;;5.90;4.00;;;20.70;99.90;;;;;;5061499;28;20115;-80
2022/08/18 01:12:52;;;;;;;9.65;4.43;;;20.70;99.90;;;;;;5060538;28;20039;-80
2022/08/18 01:15:20;;;;;;;5.05;3.35;;;20.70;99.90;;;;;;5057910;28;20491;-80
2022/08/18 01:21:49;;;;;;;6.70;4.07;;;20.70;99.90;;;;;;5061140;28;20557;-80
2022/08/18 01:23:48;;;;;;;5.32;3.50;;;20.60;99.90;;;;;;5060025;28;20028;-80
2022/08/18 01:26:16;;;;;;;5.65;3.47;;;20.60;99.90;;;;;;5055613;28;20399;-80
2022/08/18 01:28:44;;;;;;;5.65;3.70;;;20.50;99.90;;;;;;5059996;28;20056;-80
2022/08/18 01:31:12;;;;;;;6.63;4.15;;;20.50;99.90;;;;;;5058589;28;20024;-80
2022/08/18 01:33:41;;;;;;;5.40;3.50;;;20.50;99.90;;;;;;5055881;28;20083;-80
2022/08/18 01:36:19;;;;;;;5.88;3.80;;;20.50;99.90;;;;;;5061183;28;20025;-80
2022/08/18 01:38:49;;;;;;;5.97;3.97;;;20.50;99.90;;;;;;5060240;28;20024;-80
2022/08/18 01:41:15;;;;;;;5.65;4.28;;;20.50;99.90;;;;;;5061676;28;20034;-80
2022/08/18 01:43:40;;;;;;;6.45;3.58;;;20.50;99.90;;;;;;5055967;28;20021;-80
2022/08/18 01:46:07;;;;;;;7.28;4.10;;;20.50;99.90;;;;;;5062126;28;20029;-81
2022/08/18 01:48:35;;;;;;;6.82;3.92;;;20.50;99.90;;;;;;5059106;28;20035;-80
2022/08/18 01:51:03;;;;;;;6.93;3.90;;;20.40;99.90;;;;;;5061856;28;20046;-80
2022/08/18 01:53:29;;;;;;;4.45;3.20;;;20.50;99.90;;;;;;5057807;28;20266;-80
2022/08/18 01:55:55;;;;;;;5.93;4.10;;;20.50;99.90;;;;;;5053938;28;20054;-80
2022/08/18 01:58:26;;;;;;;5.60;3.47;;;20.50;99.90;;;;;;5058336;28;20032;-80
2022/08/18 02:00:52;;;;;;;4.78;3.47;;;20.40;99.90;;;;;;5060552;28;20139;-80
2022/08/18 02:03:18;;;;;;;6.35;3.80;;;20.50;99.90;;;;;;5057942;28;20028;-81
2022/08/18 02:05:48;;;;;;;4.85;3.55;;;20.50;99.90;;;;;;5055259;28;20041;-80
2022/08/18 02:08:14;;;;;;;5.75;3.60;;;20.40;99.90;;;;;;5060676;28;20050;-80
2022/08/18 02:10:40;;;;;;;5.47;3.75;;;20.40;99.90;;;;;;5056767;28;20509;-80
2022/08/18 02:13:06;;;;;;;6.07;3.90;;;20.30;99.90;;;;;;5059114;28;20077;-80
2022/08/18 02:15:33;;;;;;;6.88;4.22;;;20.30;99.90;;;;;;5057651;28;20483;-80
2022/08/18 02:17:58;;;;;;;9.73;3.50;;;20.20;99.90;;;;;;5061334;28;20062;-80
2022/08/18 02:20:24;;;;;;;5.22;3.75;;;20.20;99.90;;;;;;5061038;28;20032;-81
2022/08/18 02:22:50;;;;;;;6.03;4.03;;;20.20;99.90;;;;;;5057631;28;20021;-80
2022/08/18 02:25:17;;;;;;;5.47;3.55;;;20.20;99.90;;;;;;5054070;28;20550;-81
2022/08/18 02:27:44;;;;;;;6.43;4.00;;;20.10;99.90;;;;;;5056375;28;20054;-80
2022/08/18 02:30:14;;;;;;;4.78;3.53;;;20.10;99.90;;;;;;5057966;28;20032;-80
2022/08/18 02:32:40;;;;;;;4.97;3.35;;;20.00;99.90;;;;;;5054153;28;20543;-81
2022/08/18 02:35:07;;;;;;;4.97;3.80;;;20.00;99.90;;;;;;5059109;28;20056;-80
2022/08/18 02:37:33;;;;;;;5.10;3.83;;;20.00;99.90;;;;;;5055997;28;20024;-81
2022/08/18 02:39:58;;;;;;;4.30;2.85;;;20.00;99.90;;;;;;5061570;28;20517;-81
2022/08/18 02:42:24;;;;;;;6.80;3.70;;;20.00;99.90;;;;;;5059071;28;20467;-80
2022/08/18 02:44:50;;;;;;;19.17;4.35;;;19.90;99.90;;;;;;5060743;28;20246;-80
2022/08/18 02:47:19;;;;;;;5.00;3.72;;;19.90;99.90;;;;;;5061022;28;20112;-81
2022/08/18 02:49:44;;;;;;;5.53;3.60;;;19.90;99.90;;;;;;5055902;28;20033;-80
2022/08/18 02:52:10;;;;;;;5.20;3.65;;;19.90;99.90;;;;;;5059873;28;20028;-81
2022/08/18 02:54:35;;;;;;;5.35;3.75;;;19.80;99.90;;;;;;5059602;28;20028;-81
2022/08/18 02:57:09;;;;;;;7.00;4.22;;;19.80;99.90;;;;;;5061179;28;20020;-80
2022/08/18 02:59:37;;;;;;;6.25;4.03;;;19.80;99.90;;;;;;5057052;28;20706;-81
2022/08/18 03:02:04;;;;;;;5.93;3.90;;;19.70;99.90;;;;;;5047295;28;21114;-81
2022/08/18 03:04:30;;;;;;;6.15;3.88;;;19.70;99.90;;;;;;5056351;28;20043;-81
2022/08/18 03:06:58;;;;;;;5.40;3.25;;;19.70;99.90;;;;;;5050898;28;20566;-81
2022/08/18 03:09:23;;;;;;;5.75;3.83;;;19.60;99.90;;;;;;5052299;28;20035;-81
2022/08/18 03:11:49;;;;;;;7.90;4.18;;;19.60;99.90;;;;;;5059864;28;20394;-81
2022/08/18 03:14:15;;;;;;;7.85;4.22;;;19.60;99.90;;;;;;5064739;28;20074;-81
2022/08/18 03:16:43;;;;;;;5.20;3.65;;;19.60;99.90;;;;;;5061722;28;20021;-81
2022/08/18 03:19:09;;;;;;;7.10;4.55;;;19.50;99.90;;;;;;5065225;28;20055;-81
2022/08/18 03:21:36;;;;;;;5.80;4.00;;;19.50;99.90;;;;;;5058470;28;20491;-81
2022/08/18 03:24:04;;;;;;;5.53;3.58;;;19.50;99.90;;;;;;5064689;28;20115;-80
2022/08/18 03:26:30;;;;;;;6.60;3.75;;;19.50;99.90;;;;;;5065422;28;20024;-80
2022/08/18 03:28:58;;;;;;;6.88;4.03;;;19.50;99.90;;;;;;5061936;28;20379;-81
2022/08/18 03:31:25;;;;;;;5.30;3.72;;;19.50;99.90;;;;;;5059741;28;20032;-80
2022/08/18 03:33:52;;;;;;;4.95;3.85;;;19.50;99.90;;;;;;5057517;28;20489;-80
2022/08/18 03:36:21;;;;;;;6.40;3.95;;;19.50;99.90;;;;;;5057843;28;20028;-80
2022/08/18 03:38:49;;;;;;;5.70;3.47;;;19.50;99.90;;;;;;5059880;28;20028;-81
2022/08/18 03:41:17;;;;;;;6.68;3.67;;;19.40;99.90;;;;;;5064572;28;20380;-82
2022/08/18 03:43:43;;;;;;;5.60;3.80;;;19.40;99.90;;;;;;5059700;28;20024;-82
2022/08/18 03:46:12;;;;;;;5.78;3.67;;;19.30;99.90;;;;;;5061044;28;20070;-81
2022/08/18 03:48:39;;;;;;;7.03;5.18;;;19.30;99.90;;;;;;5056440;28;20025;-81
2022/08/18 03:51:12;;;;;;;9.25;3.72;;;19.30;99.90;;;;;;5063238;28;20035;-81
2022/08/18 03:53:38;;;;;;;6.10;4.50;;;19.30;99.90;;;;;;5061465;28;20024;-81
2022/08/18 03:56:14;;;;;;;7.30;4.60;;;19.30;99.90;;;;;;5059104;28;20082;-80
2022/08/18 03:58:44;;;;;;;6.53;3.40;;;19.20;99.90;;;;;;5060942;28;20052;-82
2022/08/18 04:01:12;;;;;;;5.03;3.47;;;19.30;99.90;;;;;;5062034;28;20024;-82
2022/08/18 04:03:38;;;;;;;6.85;4.22;;;19.30;99.90;;;;;;5061872;28;20213;-82
2022/08/18 04:06:03;;;;;;;6.65;4.65;;;19.30;99.90;;;;;;5058541;28;20484;-81
2022/08/18 04:08:29;;;;;;;6.35;4.03;;;19.20;99.90;;;;;;5058319;28;20082;-80
2022/08/18 04:10:55;;;;;;;4.88;3.67;;;19.20;99.90;;;;;;5059503;28;20210;-82
2022/08/18 04:13:23;;;;;;;3.92;3.35;;;19.20;99.90;;;;;;5060398;28;20025;-81
2022/08/18 04:15:48;;;;;;;8.88;4.05;;;19.30;99.90;;;;;;5057061;28;20025;-81
2022/08/18 04:18:14;;;;;;;7.55;4.15;;;19.30;99.90;;;;;;5062161;28;20604;-81
2022/08/18 04:21:31;;;;;;;5.93;4.07;;;19.30;99.90;;;;;;5056957;28;20263;-81
2022/08/18 04:24:03;;;;;;;5.72;3.63;;;19.30;99.90;;;;;;5049514;28;20036;-81
2022/08/18 04:26:37;;;;;;;6.60;4.30;;;19.30;99.90;;;;;;5060500;28;20032;-81
2022/08/18 04:29:05;;;;;;;7.10;4.30;;;19.30;99.90;;;;;;5057925;28;20025;-81
2022/08/18 04:31:31;;;;;;;6.50;3.97;;;19.40;99.90;;;;;;5062356;28;20064;-81
2022/08/18 04:33:59;;;;;;;5.28;3.80;;;19.40;99.90;;;;;;5060909;28;20101;-81
2022/08/18 04:36:26;;;;;;;5.68;3.80;;;19.50;99.90;;;;;;5062047;28;20029;-81
2022/08/18 04:38:52;;;;;;;5.38;4.15;;;19.50;99.90;;;;;;5070789;28;20436;-80
2022/08/18 04:41:17;;;;;;;6.03;3.90;;;19.50;99.90;;;;;;5063316;28;20095;-80
2022/08/18 04:43:43;;;;;;;5.43;3.75;;;19.60;99.90;;;;;;5061054;28;20107;-81
2022/08/18 04:46:09;;;;;;;5.97;3.83;;;19.60;99.90;;;;;;5044337;28;20021;-81
2022/08/18 04:48:37;;;;;;;4.95;3.58;;;19.70;99.90;;;;;;5054562;28;20049;-80
2022/08/18 04:51:12;;;;;;;5.63;4.10;;;19.80;99.90;;;;;;5063896;28;20103;-81
2022/08/18 04:53:44;;;;;;;5.15;3.55;;;19.90;99.90;;;;;;5059214;28;20154;-81
2022/08/18 04:56:28;;;;;;;6.80;4.07;;;19.90;99.90;;;;;;5063760;28;20033;-81
2022/08/18 04:58:56;;;;;;;6.60;4.25;;;20.00;99.90;;;;;;5057207;28;20769;-80
2022/08/18 05:01:25;;;;;;;5.68;3.83;;;20.10;99.90;;;;;;5061999;28;20029;-81
2022/08/18 05:03:52;;;;;;;5.63;4.30;;;20.20;99.90;;;;;;5061118;28;20107;-80
2022/08/18 05:06:20;;;;;;;6.00;4.18;;;20.30;99.90;;;;;;5062455;28;20076;-80
2022/08/18 05:08:48;;;;;;;6.32;4.50;;;20.30;99.90;;;;;;5057393;28;20111;-80
2022/08/18 05:11:14;;;;;;;6.10;4.30;;;20.40;99.90;;;;;;5058832;28;20024;-81
2022/08/18 05:13:41;;;;;;;6.68;3.75;;;20.50;99.90;;;;;;5060335;28;20025;-80
2022/08/18 05:16:07;;;;;;;9.10;4.80;;;20.50;99.90;;;;;;5061832;28;20036;-81
2022/08/18 05:18:38;;;;;;;6.28;4.05;;;20.60;99.90;;;;;;5058818;28;20078;-81
2022/08/18 05:21:03;;;;;;;8.13;4.28;;;20.60;99.90;;;;;;5058396;28;20024;-81
2022/08/18 05:23:29;;;;;;;5.47;3.75;;;20.60;99.90;;;;;;5060354;28;20070;-88
2022/08/18 05:25:59;;;;;;;8.57;4.22;;;20.70;99.90;;;;;;5060043;28;20031;-82
2022/08/18 05:28:25;;;;;;;7.07;4.47;;;20.70;99.90;;;;;;5058366;28;20376;-83
2022/08/18 05:30:51;;;;;;;6.07;4.22;;;20.80;99.90;;;;;;5060348;28;20089;-83
2022/08/18 05:33:17;;;;;;;5.78;3.95;;;20.80;99.90;;;;;;5062904;28;20054;-82
2022/08/18 05:35:47;;;;;;;12.48;5.15;;;20.90;99.90;;;;;;5057266;28;20129;-83
2022/08/18 05:38:27;;;;;;;7.57;4.03;;;21.00;99.90;;;;;;5059095;28;20527;-80
2022/08/18 05:41:06;;;;;;;4.78;4.10;;;21.20;99.90;;;;;;5058904;28;20115;-85
2022/08/18 05:43:31;;;;;;;6.28;4.13;;;21.30;99.90;;;;;;5057762;28;20024;-77
2022/08/18 05:46:00;;;;;;;6.57;5.03;;;21.40;99.90;;;;;;5048905;28;20090;-90
2022/08/18 05:48:26;;;;;;;8.10;4.57;;;21.50;99.90;;;;;;5058306;28;20040;-87
2022/08/18 05:50:52;;;;;;;5.80;4.28;;;21.60;99.90;;;;;;5062150;28;20032;-86
2022/08/18 05:53:18;;;;;;;10.13;4.13;;;21.70;99.90;;;;;;5059439;28;20052;-86
2022/08/18 05:58:49;;;;;;;6.18;4.38;;;21.90;99.90;;;;;;5054887;28;20071;-84
2022/08/18 06:01:21;;;;;;;6.03;4.20;;;22.00;99.90;;;;;;5055776;28;20060;-82
2022/08/18 06:04:19;;;;;;;7.28;4.50;;;22.20;99.90;;;;;;5061961;28;20027;-75
2022/08/18 06:06:46;;;;;;;5.00;3.55;;;22.30;99.90;;;;;;5021319;28;20035;-75
2022/08/18 06:09:47;;;;;;;8.35;4.85;;;22.30;99.90;;;;;;5039906;28;20036;-74
2022/08/18 06:12:25;;;;;;;9.18;4.68;;;22.40;99.90;;;;;;5041180;28;20112;-75
2022/08/18 06:14:57;;;;;;;6.15;4.45;;;22.50;99.90;;;;;;5039570;28;20024;-74
2022/08/18 06:17:54;;;;;;;7.65;4.65;;;22.70;99.90;;;;;;5041957;28;20116;-76
2022/08/18 06:20:58;;;;;;;5.47;3.90;;;22.80;99.90;;;;;;5035944;28;20021;-76
2022/08/18 06:24:00;;;;;;;12.30;4.82;;;22.90;99.90;;;;;;5041192;28;20029;-75
2022/08/18 06:27:23;;;;;;;8.45;4.72;;;23.00;99.90;;;;;;5033541;28;20036;-76
2022/08/18 06:30:04;;;;;;;6.93;4.78;;;23.10;99.90;;;;;;4971222;28;20030;-76
2022/08/18 06:32:47;;;;;;;6.22;4.30;;;23.10;99.90;;;;;;5043094;28;20711;-76
2022/08/18 06:35:34;;;;;;;6.82;4.57;;;23.30;99.90;;;;;;5039094;28;20099;-76
2022/08/18 06:38:37;;;;;;;7.40;4.18;;;23.40;99.90;;;;;;5037548;28;20029;-75
2022/08/18 06:41:14;;;;;;;6.50;4.65;;;23.30;99.90;;;;;;5040349;28;20060;-76
2022/08/18 06:44:02;;;;;;;6.35;4.22;;;23.20;99.90;;;;;;5038326;28;20108;-77
2022/08/18 06:46:48;;;;;;;6.93;4.60;;;23.30;99.90;;;;;;5038120;28;20021;-76
2022/08/18 06:49:33;;;;;;;5.75;4.63;;;23.30;99.90;;;;;;5034797;28;20511;-76
2022/08/18 06:52:16;;;;;;;6.13;4.32;;;23.40;99.90;;;;;;5047284;28;20053;-76
2022/08/18 06:54:42;;;;;;;8.23;4.72;;;23.40;99.90;;;;;;5045941;28;20499;-76
2022/08/18 06:57:28;;;;;;;5.68;4.10;;;23.50;99.90;;;;;;5047300;28;20024;-75
2022/08/18 06:59:59;;;;;;;8.10;4.90;;;23.60;99.90;;;;;;5046369;28;20499;-76
2022/08/18 07:03:18;;;;;;;6.78;4.18;;;23.60;99.90;;;;;;5047197;28;20032;-76
2022/08/18 07:06:00;;;;;;;8.60;4.10;;;23.80;99.90;;;;;;5031200;28;20048;-76
2022/08/18 07:08:40;;;;;;;6.78;4.50;;;23.90;99.90;;;;;;5066039;28;20546;-77
2022/08/18 07:11:19;;;;;;;5.50;4.53;;;24.00;99.90;;;;;;5067699;28;20064;-76
2022/08/18 07:13:47;;;;;;;6.57;4.03;;;24.00;99.90;;;;;;5064656;28;20500;-76
2022/08/18 07:16:27;;;;;;;6.90;4.30;;;24.00;99.90;;;;;;5062434;28;20032;-76
2022/08/18 07:18:53;;;;;;;8.05;4.30;;;24.00;99.90;;;;;;5059783;28;20028;-76
2022/08/18 07:21:29;;;;;;;8.05;4.60;;;24.10;99.90;;;;;;5062323;28;20438;-76
2022/08/18 07:24:03;;;;;;;6.47;4.47;;;24.10;99.90;;;;;;5061059;28;20082;-76
2022/08/18 07:26:28;;;;;;;6.53;4.35;;;24.20;99.90;;;;;;5064149;28;20032;-76
2022/08/18 07:29:10;;;;;;;8.32;4.45;;;24.30;99.90;;;;;;5066506;28;20025;-77
2022/08/18 07:31:49;;;;;;;8.15;4.68;;;24.30;99.90;;;;;;5065846;28;20031;-76
2022/08/18 07:34:26;;;;;;;7.05;4.93;;;24.50;99.90;;;;;;5066748;28;20094;-76
2022/08/18 07:37:01;;;;;;;8.20;4.90;;;24.60;99.90;;;;;;5065567;28;20028;-76
2022/08/18 07:39:50;;;;;;;7.47;5.20;;;24.60;99.90;;;;;;5065422;28;20116;-76
2022/08/18 07:42:32;;;;;;;8.35;4.65;;;24.70;99.90;;;;;;5066679;28;20025;-76
2022/08/18 07:45:31;;;;;;;8.63;5.15;;;24.80;99.90;;;;;;5061040;28;20020;-76
2022/08/18 07:48:24;;;;;;;10.60;6.00;;;25.00;99.90;;;;;;5063550;28;20056;-76
2022/08/18 07:51:09;;;;;;;6.97;5.30;;;25.00;99.90;;;;;;5062187;28;20118;-76
2022/08/18 07:53:41;;;;;;;6.97;4.40;;;25.20;99.90;;;;;;5059280;28;20037;-75
2022/08/18 07:56:17;;;;;;;7.75;5.30;;;25.20;99.90;;;;;;5061269;28;20129;-75
2022/08/18 07:58:49;;;;;;;8.32;5.03;;;25.20;99.90;;;;;;5061587;28;20031;-76
2022/08/18 08:01:43;;;;;;;8.35;5.30;;;25.30;99.90;;;;;;5060694;28;20032;-76
2022/08/18 08:04:32;;;;;;;10.77;5.78;;;25.40;99.90;;;;;;5056790;28;20059;-76
2022/08/18 08:07:09;;;;;;;6.90;4.75;;;25.40;99.90;;;;;;5065102;28;20497;-76
2022/08/18 08:09:52;;;;;;;7.20;4.47;;;25.60;99.90;;;;;;5062489;28;20028;-76
2022/08/18 08:12:35;;;;;;;15.55;5.40;;;25.60;99.90;;;;;;5072027;28;20035;-76
2022/08/18 08:15:16;;;;;;;7.20;4.80;;;25.70;99.90;;;;;;5063738;28;20039;-76
2022/08/18 08:17:58;;;;;;;9.30;6.15;;;25.70;99.50;;;;;;5064251;28;20032;-80
2022/08/18 08:20:43;;;;;;;9.18;5.05;;;25.80;99.90;;;;;;5062696;28;20060;-75
2022/08/18 08:23:36;;;;;;;10.70;5.38;;;25.80;99.90;;;;;;5063512;28;20193;-75
2022/08/18 08:26:20;;;;;;;8.15;5.35;;;25.90;99.90;;;;;;5053744;28;20019;-76
2022/08/18 08:29:06;;;;;;;7.88;5.30;;;25.90;99.90;;;;;;5066676;28;20039;-75
2022/08/18 08:32:03;;;;;;;11.07;6.07;;;26.00;99.90;;;;;;5059989;28;20033;-73
2022/08/18 08:34:39;;;;;;;10.20;5.20;;;26.10;99.90;;;;;;5053080;28;20071;-76
2022/08/18 08:37:11;;;;;;;7.53;5.00;;;26.20;99.90;;;;;;5062927;28;20074;-76
2022/08/18 08:39:56;;;;;;;6.22;3.90;;;26.30;98.30;;;;;;5063696;28;20082;-76
2022/08/18 08:42:44;;;;;;;7.78;4.95;;;26.40;96.30;;;;;;5064879;28;20028;-76
2022/08/18 08:45:19;;;;;;;16.10;5.55;;;26.20;98.20;;;;;;5064513;28;20043;-76
2022/08/18 08:48:03;;;;;;;5.95;4.35;;;26.40;97.60;;;;;;5062407;28;20070;-76
2022/08/18 08:50:35;;;;;;;7.10;4.97;;;26.50;96.10;;;;;;5063113;28;20032;-76
2022/08/18 08:53:31;;;;;;;7.78;5.35;;;26.60;97.10;;;;;;5064447;28;20390;-76
2022/08/18 08:56:01;;;;;;;7.18;5.10;;;26.40;95.80;;;;;;5063015;28;20026;-76
2022/08/18 08:58:41;;;;;;;9.00;5.22;;;26.50;95.50;;;;;;5064946;28;20056;-76
2022/08/18 09:01:29;;;;;;;5.65;4.22;;;26.80;94.50;;;;;;5062924;28;20388;-76
2022/08/18 09:04:22;;;;;;;6.93;4.53;;;26.50;93.40;;;;;;5060505;28;20040;-75
2022/08/18 09:07:24;;;;;;;8.20;4.20;;;26.20;94.40;;;;;;5044906;28;20407;-75
2022/08/18 09:10:21;;;;;;;6.68;3.90;;;26.00;94.80;;;;;;5052188;28;20086;-75
2022/08/18 09:13:01;;;;;;;4.75;3.67;;;25.90;95.10;;;;;;5064382;28;20036;-75
2022/08/18 09:16:17;;;;;;;5.55;3.80;;;25.80;95.20;;;;;;5063789;28;20040;-75
2022/08/18 09:19:12;;;;;;;6.47;3.85;;;25.80;97.60;;;;;;5034156;28;20040;-76
2022/08/18 09:21:48;;;;;;;6.75;4.07;;;25.80;94.90;;;;;;5059765;28;20028;-74
2022/08/18 09:24:25;;;;;;;8.00;5.05;;;25.60;95.30;;;;;;5065341;28;20059;-73
2022/08/18 09:27:25;;;;;;;7.25;4.60;;;26.10;97.10;;;;;;5063392;28;20099;-74
2022/08/18 09:29:54;;;;;;;7.95;4.55;;;26.40;96.90;;;;;;5061919;28;20454;-73
2022/08/18 09:32:19;;;;;;;6.03;3.97;;;26.50;94.50;;;;;;5058357;28;20776;-74
2022/08/18 09:35:00;;;;;;;7.68;5.05;;;26.10;95.00;;;;;;5058937;28;20090;-74
2022/08/18 09:37:33;;;;;;;8.50;5.40;;;26.40;97.70;;;;;;5047120;28;20035;-74
2022/08/18 09:43:10;;;;;;;9.52;4.88;;;26.90;92.60;;;;;;5061606;28;20059;-74
2022/08/18 09:45:52;;;;;;;10.43;4.95;;;26.70;93.40;;;;;;5061462;28;20032;-75
2022/08/18 09:48:24;;;;;;;9.07;5.10;;;27.00;93.80;;;;;;5059141;28;20020;-74
2022/08/18 09:50:54;;;;;;;9.32;5.82;;;27.00;94.30;;;;;;5063095;28;20032;-74
2022/08/18 09:53:36;;;;;;;8.65;5.05;;;27.40;92.50;;;;;;5064945;28;20036;-73
2022/08/18 09:56:04;;;;;;;7.63;4.78;;;27.20;92.50;;;;;;5064982;28;20094;-79
2022/08/18 09:59:01;;;;;;;7.30;5.00;;;26.60;92.60;;;;;;5064243;28;20047;-75
2022/08/18 10:01:33;;;;;;;13.18;5.32;;;26.90;92.30;;;;;;5063119;28;20514;-78
2022/08/18 10:04:13;;;;;;;6.50;4.40;;;26.90;92.60;;;;;;5060213;28;20047;-77
2022/08/18 10:06:44;;;;;;;4.93;4.03;;;27.20;91.30;;;;;;5045854;28;20052;-76
2022/08/18 10:09:29;;;;;;;;;;;27.00;90.90;;;;;;5055677;28;20116;-77
2022/08/18 10:11:59;;;;;;;6.15;4.82;;;26.60;91.70;;;;;;5052916;28;20804;-76
2022/08/18 10:15:01;;;;;;;8.25;5.05;;;27.00;92.10;;;;;;5057639;28;20035;-74
2022/08/18 10:17:53;;;;;;;6.95;4.55;;;27.00;93.50;;;;;;5054713;28;20111;-74
2022/08/18 10:20:58;;;;;;;7.18;4.75;;;27.90;89.30;;;;;;5062465;28;20028;-78
2022/08/18 10:23:49;;;;;;;6.90;4.97;;;28.00;90.40;;;;;;5061457;28;20491;-79
2022/08/18 10:26:29;;;;;;;7.60;4.50;;;28.80;86.00;;;;;;5057019;28;20028;-77
2022/08/18 10:29:04;;;;;;;6.45;3.83;;;27.40;88.20;;;;;;5057442;28;20071;-79
2022/08/18 10:31:50;;;;;;;5.43;3.90;;;26.50;91.50;;;;;;5061993;28;20032;-77
2022/08/18 10:34:55;;;;;;;5.45;3.75;;;26.00;92.20;;;;;;5059439;28;20361;-78
2022/08/18 10:37:45;;;;;;;5.05;3.83;;;25.70;93.30;;;;;;5059495;28;20546;-76
2022/08/18 10:40:13;;;;;;;7.65;4.53;;;25.60;93.80;;;;;;5062624;28;20431;-79
2022/08/18 10:42:44;;;;;;;5.65;4.18;;;25.80;94.10;;;;;;5065186;28;20063;-79
2022/08/18 10:45:25;;;;;;;6.05;4.38;;;26.10;92.70;;;;;;5061410;28;20051;-80
2022/08/18 10:48:20;;;;;;;4.57;3.50;;;26.60;91.20;;;;;;5061440;28;20036;-79
2022/08/18 10:51:09;;;;;;;5.28;3.90;;;26.30;91.50;;;;;;5052342;28;20024;-79
2022/08/18 10:53:51;;;;;;;6.57;4.05;;;26.10;92.20;;;;;;5060659;28;20155;-76
2022/08/18 10:56:33;;;;;;;4.70;3.72;;;26.40;91.60;;;;;;5059002;28;20115;-80
2022/08/18 10:59:09;;;;;;;4.50;3.47;;;26.40;91.40;;;;;;5057477;28;20395;-78
2022/08/18 11:01:51;;;;;;;9.18;3.95;;;26.30;91.50;;;;;;5054295;28;20127;-78
2022/08/18 11:04:23;;;;;;;8.55;3.95;;;26.30;91.30;;;;;;5055014;28;20032;-76
2022/08/18 11:06:52;;;;;;;4.28;3.17;;;26.90;90.40;;;;;;5058313;28;20048;-76
2022/08/18 11:09:28;;;;;;;5.88;3.65;;;27.20;88.70;;;;;;5061380;28;20024;-78
2022/08/18 11:11:58;;;;;;;7.38;4.68;;;26.80;90.00;;;;;;5060699;28;20070;-79
2022/08/18 11:14:59;;;;;;;4.93;3.60;;;28.10;83.10;;;;;;5058877;28;20036;-78
2022/08/18 11:17:47;;;;;;;5.05;3.75;;;28.70;81.50;;;;;;5060031;28;20499;-78
2022/08/18 11:20:15;;;;;;;5.25;4.15;;;28.60;79.50;;;;;;5059871;28;20445;-78
2022/08/18 11:22:54;;;;;;;4.82;4.13;;;29.50;76.40;;;;;;5059270;28;20662;-81
2022/08/18 11:25:34;;;;;;;4.45;3.55;;;27.90;80.40;;;;;;5052183;28;20028;-80
2022/08/18 11:28:00;;;;;;;5.00;3.60;;;27.40;83.30;;;;;;5048138;28;20105;-82
2022/08/18 11:30:40;;;;;;;4.82;3.67;;;26.90;86.20;;;;;;5044081;28;20033;-80
2022/08/18 11:33:05;;;;;;;6.13;3.63;;;26.40;88.40;;;;;;5059167;28;20024;-80
2022/08/18 11:35:51;;;;;;;3.88;3.22;;;26.20;89.80;;;;;;5054348;28;20028;-81
2022/08/18 11:38:18;;;;;;;4.82;3.65;;;26.60;89.00;;;;;;5061360;28;20029;-80
2022/08/18 11:40:47;;;;;;;4.03;3.33;;;26.60;88.80;;;;;;5063428;28;20379;-80
2022/08/18 11:43:27;;;;;;;4.70;3.88;;;26.40;89.70;;;;;;5058767;28;20074;-81
2022/08/18 11:45:58;;;;;;;5.75;3.30;;;26.50;89.50;;;;;;5058094;28;20576;-79
2022/08/18 11:48:27;;;;;;;5.75;3.80;;;26.50;88.70;;;;;;5055148;28;20036;-81
2022/08/18 11:50:55;;;;;;;4.38;3.50;;;26.30;89.30;;;;;;5059240;28;20032;-80
2022/08/18 11:53:32;;;;;;;5.90;4.00;;;26.10;90.30;;;;;;5055541;28;20033;-80
2022/08/18 11:56:12;;;;;;;4.70;3.40;;;26.10;90.50;;;;;;5060977;28;20039;-81
2022/08/18 11:58:46;;;;;;;3.75;3.25;;;26.10;90.60;;;;;;5060416;28;20028;-81
2022/08/18 12:01:35;;;;;;;6.20;3.90;;;26.30;90.30;;;;;;5059122;28;20064;-81
2022/08/18 12:04:13;;;;;;;6.25;3.88;;;26.20;90.30;;;;;;5059725;28;20028;-81
2022/08/18 12:07:03;;;;;;;6.18;3.90;;;26.90;88.80;;;;;;5058989;28;20063;-87
2022/08/18 12:09:34;;;;;;;10.70;4.03;;;29.80;74.50;;;;;;5072380;28;20046;-86
2022/08/18 12:12:13;;;;;;;6.18;4.15;;;31.80;67.10;;;;;;5059673;28;20031;-87
2022/08/18 12:15:00;;;;;;;5.38;3.50;;;32.40;62.40;;;;;;5060515;28;20027;-84
2022/08/18 12:17:27;;;;;;;5.38;4.10;;;31.40;68.50;;;;;;5061164;28;20033;-90
2022/08/18 12:19:53;;;;;;;4.63;3.85;;;33.30;57.90;;;;;;5063904;28;20032;-88
2022/08/18 12:22:22;;;;;;;7.53;3.70;;;34.00;55.00;;;;;;5065005;28;20020;-90
2022/08/18 12:24:48;;;;;;;4.78;3.88;;;31.60;61.90;;;;;;5064755;28;20025;-90
2022/08/18 12:27:17;;;;;;;3.90;3.50;;;29.20;70.50;;;;;;5062684;28;20029;-87
2022/08/18 12:29:42;;;;;;;4.80;3.58;;;27.90;76.30;;;;;;5060912;28;20032;-88
2022/08/18 12:32:08;;;;;;;6.85;4.03;;;27.00;81.10;;;;;;5061936;28;20581;-87
2022/08/18 12:34:34;;;;;;;5.05;3.83;;;27.90;73.80;;;;;;5068167;28;20033;-87
2022/08/18 12:37:00;;;;;;;7.63;3.85;;;30.70;63.20;;;;;;5064803;28;20029;-90
2022/08/18 12:39:27;;;;;;;4.63;3.80;;;29.40;70.60;;;;;;5053029;28;20033;-82
2022/08/18 12:41:53;;;;;;;4.57;3.33;;;28.50;73.70;;;;;;5059028;28;20025;-79
2022/08/18 12:44:18;;;;;;;5.78;3.72;;;28.90;73.60;;;;;;5052735;28;20029;-80
2022/08/18 12:46:44;;;;;;;3.90;3.10;;;28.50;74.80;;;;;;5055351;28;20100;-79
2022/08/18 12:49:16;;;;;;;5.80;3.92;;;29.50;71.10;;;;;;5055319;28;20569;-80
2022/08/18 12:51:42;;;;;;;5.00;3.85;;;32.50;57.80;;;;;;5054544;28;20046;-80
2022/08/18 12:54:08;;;;;;;4.05;3.53;;;33.20;58.20;;;;;;5063922;28;20028;-78
2022/08/18 12:56:34;;;;;;;4.72;3.75;;;32.40;59.40;;;;;;5061020;28;20044;-79
2022/08/18 12:59:03;;;;;;;4.85;3.90;;;32.70;58.60;;;;;;5060319;28;20036;-77
2022/08/18 13:01:29;;;;;;;6.57;4.22;;;31.80;57.90;;;;;;5063000;28;20029;-78
2022/08/18 13:03:55;;;;;;;5.93;4.18;;;31.60;60.40;;;;;;5050851;28;20551;-78
2022/08/18 13:06:24;;;;;;;4.55;3.85;;;30.80;65.00;;;;;;5057909;28;20135;-78
2022/08/18 13:08:51;;;;;;;5.30;3.70;;;31.90;61.20;;;;;;5052990;28;20013;-78
2022/08/18 13:11:20;;;;;;;4.25;3.78;;;31.60;62.40;;;;;;5057905;28;20571;-79
2022/08/18 13:13:45;;;;;;;5.63;4.05;;;30.50;65.50;;;;;;5054052;28;20033;-80
2022/08/18 13:16:11;;;;;;;4.65;3.63;;;31.80;62.20;;;;;;5059606;28;20027;-77
2022/08/18 13:18:40;;;;;;;6.75;3.80;;;31.40;63.10;;;;;;5053566;28;20024;-80
2022/08/18 13:21:07;;;;;;;6.55;4.43;;;33.80;57.40;;;;;;5055886;28;20016;-80
2022/08/18 13:23:33;;;;;;;5.63;4.00;;;37.30;49.90;;;;;;5064000;28;20659;-74
2022/08/18 13:26:00;;;;;;;4.47;3.90;;;36.30;51.20;;;;;;5061808;28;20082;-78
2022/08/18 13:28:26;;;;;;;5.78;3.85;;;38.70;45.70;;;;;;5063045;28;20491;-78
2022/08/18 13:30:52;;;;;;;5.40;4.00;;;36.00;50.50;;;;;;5055479;28;20047;-81